Time;durP1;ratioP1;P1;durP2;ratioP2;P2;SDS_P1;SDS_P2;PMS_P1;PMS_P2;Temp;Humidity;BMP_temperature;BMP_pressure;BME280_temperature;BME280_humidity;BME280_pressure;Samples;Min_cycle;Max_cycle;Signal;HPM_P1;HPM_P2
2023/01/28 00:00:35;;;;;;;33.40;18.95;;;;;;;;;;5049737;28;20037;-74
2023/01/28 00:03:01;;;;;;;34.42;20.02;;;;;;;;;;5047262;28;20056;-73
2023/01/28 00:05:28;;;;;;;33.42;19.45;;;;;;;;;;5044158;28;20032;-73
2023/01/28 00:07:56;;;;;;;33.53;19.60;;;;;;;;;;5042523;28;20481;-73
2023/01/28 00:10:22;;;;;;;36.80;20.40;;;;;;;;;;5048037;28;20037;-73
2023/01/28 00:12:49;;;;;;;37.47;18.73;;;;;;;;;;5040785;28;20458;-73
2023/01/28 00:15:15;;;;;;;33.50;18.35;;;;;;;;;;5041257;28;20064;-73
2023/01/28 00:17:41;;;;;;;34.05;19.88;;;;;;;;;;5044539;28;20033;-73
2023/01/28 00:20:07;;;;;;;31.50;19.52;;;;;;;;;;5042055;28;20032;-73
2023/01/28 00:22:33;;;;;;;29.45;16.42;;;;;;;;;;5046199;28;20112;-73
2023/01/28 00:24:59;;;;;;;31.27;17.73;;;;;;;;;;5043941;28;20033;-74
2023/01/28 00:27:25;;;;;;;35.13;18.40;;;;;;;;;;5042942;28;20780;-73
2023/01/28 00:29:52;;;;;;;34.08;18.48;;;;;;;;;;5041568;28;20048;-73
2023/01/28 00:32:19;;;;;;;35.88;19.30;;;;;;;;;;5044305;28;20366;-73
2023/01/28 00:34:45;;;;;;;36.80;17.75;;;;;;;;;;5042130;28;20056;-73
2023/01/28 00:37:11;;;;;;;35.80;18.05;;;;;;;;;;5048064;28;20037;-73
2023/01/28 00:39:36;;;;;;;32.75;18.20;;;;;;;;;;5046702;28;20550;-73
2023/01/28 00:42:02;;;;;;;31.70;18.08;;;;;;;;;;5044664;28;20091;-73
2023/01/28 00:44:28;;;;;;;32.63;16.77;;;;;;;;;;5045491;28;20541;-74
2023/01/28 00:46:54;;;;;;;35.28;18.33;;;;;;;;;;5040105;28;20060;-73
2023/01/28 00:49:20;;;;;;;32.65;17.58;;;;;;;;;;5041089;28;20029;-73
2023/01/28 00:51:47;;;;;;;32.65;18.38;;;;;;;;;;5034742;28;20025;-74
2023/01/28 00:54:14;;;;;;;30.30;17.42;;;;;;;;;;5044382;28;20029;-73
2023/01/28 00:56:40;;;;;;;32.30;18.67;;;;;;;;;;5044647;28;20037;-73
2023/01/28 00:59:06;;;;;;;34.47;18.27;;;;;;;;;;5044741;28;20033;-74
2023/01/28 01:01:32;;;;;;;30.83;17.20;;;;;;;;;;5044418;28;20098;-73
2023/01/28 01:04:04;;;;;;;41.92;19.80;;;;;;;;;;5043821;28;20558;-73
2023/01/28 01:06:30;;;;;;;;;;;;;;;;;;5045892;28;20036;-73
2023/01/28 01:08:56;;;;;;;33.25;17.10;;;;;;;;;;5046726;28;19965;-74
2023/01/28 01:11:22;;;;;;;33.55;17.75;;;;;;;;;;5041329;28;20029;-73
2023/01/28 01:13:53;;;;;;;33.17;17.17;;;;;;;;;;5042582;28;20076;-73
2023/01/28 01:16:19;;;;;;;32.13;18.17;;;;;;;;;;5044778;28;20024;-73
2023/01/28 01:18:45;;;;;;;38.60;19.02;;;;;;;;;;5046873;28;20039;-73
2023/01/28 01:21:16;;;;;;;33.20;18.02;;;;;;;;;;5037585;28;20370;-74
2023/01/28 01:23:42;;;;;;;31.83;17.67;;;;;;;;;;5044629;28;20094;-73
2023/01/28 01:26:09;;;;;;;31.00;17.58;;;;;;;;;;5046239;28;20067;-73
2023/01/28 01:28:35;;;;;;;30.38;18.05;;;;;;;;;;5042697;28;20072;-74
2023/01/28 01:31:06;;;;;;;34.55;19.25;;;;;;;;;;5038358;28;20104;-74
2023/01/28 01:33:33;;;;;;;32.23;19.17;;;;;;;;;;5045822;28;20545;-74
2023/01/28 01:35:59;;;;;;;38.65;19.95;;;;;;;;;;5044206;28;20094;-73
2023/01/28 01:38:26;;;;;;;41.28;19.92;;;;;;;;;;5040933;28;20744;-74
2023/01/28 01:40:52;;;;;;;36.80;19.80;;;;;;;;;;5043543;28;20518;-74
2023/01/28 01:43:19;;;;;;;37.22;21.08;;;;;;;;;;5040244;28;20087;-73
2023/01/28 01:45:47;;;;;;;32.00;18.23;;;;;;;;;;5044323;28;20033;-73
2023/01/28 01:48:17;;;;;;;36.22;19.38;;;;;;;;;;5044938;28;20746;-73
2023/01/28 01:50:47;;;;;;;34.75;19.85;;;;;;;;;;5042526;28;20467;-74
2023/01/28 01:53:16;;;;;;;35.80;20.08;;;;;;;;;;5039255;28;20025;-73
2023/01/28 01:55:44;;;;;;;37.83;19.90;;;;;;;;;;5046629;28;20043;-74
2023/01/28 01:58:13;;;;;;;36.35;21.52;;;;;;;;;;5039726;28;20351;-73
2023/01/28 02:00:39;;;;;;;36.30;20.30;;;;;;;;;;5042643;28;20045;-74
2023/01/28 02:03:05;;;;;;;39.50;21.08;;;;;;;;;;5042028;28;20053;-73
2023/01/28 02:05:31;;;;;;;33.47;19.23;;;;;;;;;;5044743;28;20391;-73
2023/01/28 02:08:19;;;;;;;32.97;18.85;;;;;;;;;;5046334;28;20120;-73
2023/01/28 02:10:44;;;;;;;31.80;18.90;;;;;;;;;;5038313;28;20375;-73
2023/01/28 02:13:10;;;;;;;32.00;18.52;;;;;;;;;;5046518;28;20032;-73
2023/01/28 02:15:36;;;;;;;35.00;19.33;;;;;;;;;;5041433;28;20057;-73
2023/01/28 02:18:02;;;;;;;33.88;18.15;;;;;;;;;;5040439;28;20143;-73
2023/01/28 02:20:48;;;;;;;32.70;17.63;;;;;;;;;;5042133;28;20064;-74
2023/01/28 02:23:27;;;;;;;29.02;16.58;;;;;;;;;;5035508;28;20486;-73
2023/01/28 02:26:11;;;;;;;33.45;18.45;;;;;;;;;;5038098;28;20112;-73
2023/01/28 02:28:44;;;;;;;29.60;17.48;;;;;;;;;;5031322;28;20036;-73
2023/01/28 02:31:24;;;;;;;36.30;18.25;;;;;;;;;;5039300;28;20048;-73
2023/01/28 02:33:56;;;;;;;34.75;19.23;;;;;;;;;;5043572;28;20028;-73
2023/01/28 02:36:34;;;;;;;29.92;17.08;;;;;;;;;;5041519;28;20075;-74
2023/01/28 02:39:02;;;;;;;32.90;18.40;;;;;;;;;;5041906;28;20037;-73
2023/01/28 02:41:31;;;;;;;32.25;17.20;;;;;;;;;;5044859;28;20045;-74
2023/01/28 02:43:57;;;;;;;34.05;18.33;;;;;;;;;;5039710;28;20028;-74
2023/01/28 02:49:16;;;;;;;31.30;16.67;;;;;;;;;;5043714;28;20048;-73
2023/01/28 02:51:54;;;;;;;34.58;17.40;;;;;;;;;;5040700;28;20040;-73
2023/01/28 02:54:38;;;;;;;35.15;19.95;;;;;;;;;;5044475;28;20036;-73
2023/01/28 02:57:10;;;;;;;34.70;18.42;;;;;;;;;;5040755;28;20463;-73
2023/01/28 02:59:41;;;;;;;34.22;19.10;;;;;;;;;;5040743;28;20035;-73
2023/01/28 03:02:19;;;;;;;34.30;19.30;;;;;;;;;;5040824;28;20033;-74
2023/01/28 03:04:49;;;;;;;36.72;19.88;;;;;;;;;;5041601;28;20096;-73
2023/01/28 03:07:17;;;;;;;38.58;21.38;;;;;;;;;;5018705;28;20116;-73
2023/01/28 03:09:44;;;;;;;31.48;17.95;;;;;;;;;;5043664;28;20143;-73
2023/01/28 03:37:36;;;;;;;35.85;18.17;;;;;;;;;;5038966;28;20095;-73
2023/01/28 03:40:06;;;;;;;29.48;15.90;;;;;;;;;;5046272;28;20032;-73
2023/01/28 03:42:33;;;;;;;32.60;15.63;;;;;;;;;;5046042;28;20043;-73
2023/01/28 03:45:00;;;;;;;30.67;16.50;;;;;;;;;;5047021;28;20175;-73
2023/01/28 03:47:27;;;;;;;27.30;15.30;;;;;;;;;;5046867;28;20029;-73
2023/01/28 03:49:54;;;;;;;34.45;17.15;;;;;;;;;;5044704;28;20446;-73
2023/01/28 03:52:21;;;;;;;30.33;16.50;;;;;;;;;;5044090;28;20029;-73
2023/01/28 03:54:48;;;;;;;32.63;17.75;;;;;;;;;;5045656;28;20029;-73
2023/01/28 03:57:17;;;;;;;32.42;18.08;;;;;;;;;;5042377;28;20029;-74
2023/01/28 03:59:43;;;;;;;30.23;16.95;;;;;;;;;;5039996;28;20029;-74
2023/01/28 04:02:10;;;;;;;27.25;15.68;;;;;;;;;;5049944;28;20528;-74
2023/01/28 04:04:39;;;;;;;33.13;18.10;;;;;;;;;;5044476;28;20030;-73
2023/01/28 04:07:07;;;;;;;34.63;17.52;;;;;;;;;;5048856;28;20119;-72
2023/01/28 04:09:34;;;;;;;28.67;16.20;;;;;;;;;;5047615;28;20029;-73
2023/01/28 04:12:01;;;;;;;34.95;16.95;;;;;;;;;;5031338;28;20127;-73
2023/01/28 04:14:27;;;;;;;30.92;16.95;;;;;;;;;;5041992;28;20650;-73
2023/01/28 04:16:56;;;;;;;32.17;16.10;;;;;;;;;;5045285;28;20033;-73
2023/01/28 04:19:22;;;;;;;32.17;18.42;;;;;;;;;;5041015;28;20412;-73
2023/01/28 04:21:48;;;;;;;32.33;19.10;;;;;;;;;;5042517;28;20025;-73
2023/01/28 04:24:15;;;;;;;32.70;18.73;;;;;;;;;;5046964;28;20398;-73
2023/01/28 04:26:41;;;;;;;35.47;19.90;;;;;;;;;;5048178;28;20602;-73
2023/01/28 04:29:07;;;;;;;35.00;18.63;;;;;;;;;;5044972;28;20144;-72
2023/01/28 04:31:33;;;;;;;38.47;21.02;;;;;;;;;;5043313;28;20041;-73
2023/01/28 04:33:59;;;;;;;35.42;20.52;;;;;;;;;;5038329;28;20024;-72
2023/01/28 04:36:26;;;;;;;32.22;17.95;;;;;;;;;;5045637;28;20043;-73
2023/01/28 04:38:52;;;;;;;34.10;18.20;;;;;;;;;;5037204;28;20109;-72
2023/01/28 04:41:18;;;;;;;33.97;18.30;;;;;;;;;;5041520;28;20463;-74
2023/01/28 04:43:44;;;;;;;30.85;17.05;;;;;;;;;;5041985;28;20047;-73
2023/01/28 04:46:10;;;;;;;34.25;18.20;;;;;;;;;;5047123;28;20036;-73
2023/01/28 04:48:36;;;;;;;32.50;17.27;;;;;;;;;;5043331;28;20040;-73
2023/01/28 04:51:04;;;;;;;33.70;18.88;;;;;;;;;;5040987;28;20025;-73
2023/01/28 04:53:30;;;;;;;37.65;21.42;;;;;;;;;;5037510;28;20471;-72
2023/01/28 04:55:57;;;;;;;36.50;20.85;;;;;;;;;;5042630;28;20033;-73
2023/01/28 04:58:23;;;;;;;40.35;21.58;;;;;;;;;;5029517;28;20041;-73
2023/01/28 05:00:58;;;;;;;52.35;29.00;;;;;;;;;;5043331;28;20055;-73
2023/01/28 05:03:24;;;;;;;40.50;21.60;;;;;;;;;;5047721;28;20103;-73
2023/01/28 05:05:51;;;;;;;40.42;21.88;;;;;;;;;;5045301;28;20074;-74
2023/01/28 05:08:17;;;;;;;37.75;19.67;;;;;;;;;;5047320;28;20041;-72
2023/01/28 05:10:43;;;;;;;35.38;20.02;;;;;;;;;;5041509;28;20028;-74
2023/01/28 05:13:10;;;;;;;34.10;18.67;;;;;;;;;;5045692;28;20029;-73
2023/01/28 05:15:36;;;;;;;35.72;19.27;;;;;;;;;;5040724;28;20107;-73
2023/01/28 05:18:02;;;;;;;29.73;17.75;;;;;;;;;;5047566;28;20453;-73
2023/01/28 05:20:28;;;;;;;30.13;16.55;;;;;;;;;;5033349;28;20087;-74
2023/01/28 05:22:54;;;;;;;29.85;16.60;;;;;;;;;;5042623;28;20025;-73
2023/01/28 05:25:20;;;;;;;30.58;17.40;;;;;;;;;;5040232;28;20037;-73
2023/01/28 05:27:50;;;;;;;31.25;17.13;;;;;;;;;;5046568;28;20033;-72
2023/01/28 05:30:17;;;;;;;37.97;18.13;;;;;;;;;;5039268;28;20039;-73
2023/01/28 05:32:42;;;;;;;35.22;18.55;;;;;;;;;;5034737;28;20036;-73
2023/01/28 05:35:09;;;;;;;35.53;20.20;;;;;;;;;;5043361;28;20047;-73
2023/01/28 05:37:35;;;;;;;32.15;17.35;;;;;;;;;;5043925;28;20468;-73
2023/01/28 05:40:01;;;;;;;32.63;18.10;;;;;;;;;;5043483;28;20028;-73
2023/01/28 05:42:27;;;;;;;32.30;18.90;;;;;;;;;;5038410;28;20108;-73
2023/01/28 05:44:53;;;;;;;32.05;17.48;;;;;;;;;;5040903;28;20120;-73
2023/01/28 05:47:19;;;;;;;31.70;16.92;;;;;;;;;;5040720;28;20417;-73
2023/01/28 05:49:45;;;;;;;31.60;17.13;;;;;;;;;;5033795;28;20055;-73
2023/01/28 05:52:11;;;;;;;31.70;16.65;;;;;;;;;;5042249;28;20036;-73
2023/01/28 05:54:37;;;;;;;31.60;18.00;;;;;;;;;;5044094;28;20037;-73
2023/01/28 05:57:03;;;;;;;35.55;18.50;;;;;;;;;;5037920;28;20033;-73
2023/01/28 05:59:29;;;;;;;37.78;20.63;;;;;;;;;;5041137;28;20045;-73
2023/01/28 06:01:55;;;;;;;33.88;19.02;;;;;;;;;;5042730;28;20026;-72
2023/01/28 06:04:21;;;;;;;36.88;18.83;;;;;;;;;;5038503;28;20052;-73
2023/01/28 06:06:47;;;;;;;34.15;18.48;;;;;;;;;;5044396;28;20036;-73
2023/01/28 06:09:13;;;;;;;33.00;19.85;;;;;;;;;;5041012;28;20505;-73
2023/01/28 06:11:39;;;;;;;38.67;20.42;;;;;;;;;;5044157;28;20021;-73
2023/01/28 06:14:05;;;;;;;37.25;20.98;;;;;;;;;;5044288;28;20553;-72
2023/01/28 06:16:31;;;;;;;36.45;18.60;;;;;;;;;;5041610;28;20029;-73
2023/01/28 06:18:57;;;;;;;36.60;19.65;;;;;;;;;;5044440;28;20036;-72
2023/01/28 06:21:23;;;;;;;38.05;20.35;;;;;;;;;;5041717;28;20032;-73
2023/01/28 06:23:49;;;;;;;38.13;20.63;;;;;;;;;;5041944;28;20080;-73
2023/01/28 06:26:15;;;;;;;35.53;19.33;;;;;;;;;;5041147;28;20029;-73
2023/01/28 06:28:41;;;;;;;35.40;20.63;;;;;;;;;;5043248;28;20087;-73
2023/01/28 06:31:07;;;;;;;31.83;18.70;;;;;;;;;;5044519;28;20102;-73
2023/01/28 06:33:33;;;;;;;33.13;17.98;;;;;;;;;;5042788;28;20033;-72
2023/01/28 06:36:01;;;;;;;31.20;18.08;;;;;;;;;;5044629;28;20809;-72
2023/01/28 06:38:27;;;;;;;35.67;19.42;;;;;;;;;;5027143;28;20041;-72
2023/01/28 06:40:54;;;;;;;33.05;18.30;;;;;;;;;;5046516;28;20025;-73
2023/01/28 06:43:26;;;;;;;34.78;17.70;;;;;;;;;;5026376;28;21022;-73
2023/01/28 06:45:53;;;;;;;37.33;19.42;;;;;;;;;;5039710;28;20025;-73
2023/01/28 06:48:19;;;;;;;34.45;19.92;;;;;;;;;;5044595;28;20079;-72
2023/01/28 06:50:46;;;;;;;36.10;19.85;;;;;;;;;;5044023;28;20116;-72
2023/01/28 06:53:12;;;;;;;36.03;19.17;;;;;;;;;;5043319;28;20198;-72
2023/01/28 06:55:38;;;;;;;30.35;16.95;;;;;;;;;;5040906;28;20537;-72
2023/01/28 06:58:10;;;;;;;34.35;18.60;;;;;;;;;;5044761;28;20037;-73
2023/01/28 07:00:36;;;;;;;33.57;19.47;;;;;;;;;;5043947;28;20033;-72
2023/01/28 07:03:05;;;;;;;32.35;18.27;;;;;;;;;;5044734;28;20060;-72
2023/01/28 07:05:31;;;;;;;38.50;18.50;;;;;;;;;;5045997;28;20037;-73
2023/01/28 07:07:57;;;;;;;30.20;16.77;;;;;;;;;;5046288;28;20131;-72
2023/01/28 07:10:23;;;;;;;36.08;19.15;;;;;;;;;;5042244;28;20686;-72
2023/01/28 07:12:49;;;;;;;32.97;17.38;;;;;;;;;;5046696;28;20025;-72
2023/01/28 07:15:15;;;;;;;36.08;18.15;;;;;;;;;;5043203;28;20084;-73
2023/01/28 07:17:41;;;;;;;31.92;17.63;;;;;;;;;;5049324;28;20028;-73
2023/01/28 07:20:10;;;;;;;30.73;17.95;;;;;;;;;;5048568;28;20029;-72
2023/01/28 07:22:38;;;;;;;33.03;17.90;;;;;;;;;;5045931;28;20021;-72
2023/01/28 07:25:04;;;;;;;34.03;18.38;;;;;;;;;;5047586;28;20024;-73
2023/01/28 07:27:30;;;;;;;34.47;17.42;;;;;;;;;;5025531;28;20029;-72
2023/01/28 07:29:56;;;;;;;36.95;20.08;;;;;;;;;;5047525;28;20029;-73
2023/01/28 07:32:22;;;;;;;32.95;18.98;;;;;;;;;;5043470;28;20108;-73
2023/01/28 07:34:48;;;;;;;40.95;18.98;;;;;;;;;;5040911;28;20399;-73
2023/01/28 07:37:14;;;;;;;35.35;18.60;;;;;;;;;;5042854;28;20037;-73
2023/01/28 07:39:40;;;;;;;37.38;19.98;;;;;;;;;;5043512;28;20055;-73
2023/01/28 07:42:06;;;;;;;34.67;19.42;;;;;;;;;;5046764;28;20029;-72
2023/01/28 07:44:34;;;;;;;39.08;21.25;;;;;;;;;;5045853;28;20382;-73
2023/01/28 07:47:00;;;;;;;34.03;16.48;;;;;;;;;;5048401;28;20033;-73
2023/01/28 07:49:26;;;;;;;31.75;18.83;;;;;;;;;;5047105;28;20379;-73
2023/01/28 07:51:52;;;;;;;34.15;18.65;;;;;;;;;;5045422;28;20044;-73
2023/01/28 07:54:18;;;;;;;34.05;18.83;;;;;;;;;;5047890;28;21745;-73
2023/01/28 07:56:44;;;;;;;32.35;17.85;;;;;;;;;;5045726;28;20108;-72
2023/01/28 07:59:10;;;;;;;35.20;19.38;;;;;;;;;;5047735;28;20047;-72
2023/01/28 08:01:36;;;;;;;34.85;18.10;;;;;;;;;;5049088;28;20028;-73
2023/01/28 08:04:02;;;;;;;26.13;15.75;;;;;;;;;;5021452;28;20037;-73
2023/01/28 08:06:29;;;;;;;35.15;18.05;;;;;;;;;;5049496;28;20131;-73
2023/01/28 08:08:55;;;;;;;33.08;17.10;;;;;;;;;;5047481;28;20039;-73
2023/01/28 08:11:22;;;;;;;34.67;19.50;;;;;;;;;;5042526;28;20763;-73
2023/01/28 08:13:48;;;;;;;31.27;16.80;;;;;;;;;;5047551;28;20498;-73
2023/01/28 08:16:14;;;;;;;31.40;17.75;;;;;;;;;;5044278;28;20045;-73
2023/01/28 08:18:40;;;;;;;37.83;18.48;;;;;;;;;;5045380;28;20172;-73
2023/01/28 08:21:06;;;;;;;42.17;22.15;;;;;;;;;;5048809;28;20615;-72
2023/01/28 08:23:33;;;;;;;46.00;24.95;;;;;;;;;;5031011;28;20854;-72
2023/01/28 08:25:59;;;;;;;36.47;21.85;;;;;;;;;;5043888;28;20031;-72
2023/01/28 08:28:26;;;;;;;42.25;23.17;;;;;;;;;;5045528;28;20079;-72
2023/01/28 08:30:52;;;;;;;34.13;18.63;;;;;;;;;;5045807;28;20073;-71
2023/01/28 08:33:18;;;;;;;31.92;18.45;;;;;;;;;;5043998;28;20144;-71
2023/01/28 08:35:45;;;;;;;31.95;18.83;;;;;;;;;;5047813;28;20075;-72
2023/01/28 08:38:12;;;;;;;33.60;17.83;;;;;;;;;;5045591;28;20059;-72
2023/01/28 08:40:38;;;;;;;32.85;16.55;;;;;;;;;;5044965;28;20033;-72
2023/01/28 08:43:04;;;;;;;31.48;17.77;;;;;;;;;;5049624;28;20029;-72
2023/01/28 08:45:30;;;;;;;33.05;17.60;;;;;;;;;;5042564;28;20360;-72
2023/01/28 08:48:04;;;;;;;34.95;17.80;;;;;;;;;;5047070;28;20470;-72
2023/01/28 08:50:32;;;;;;;37.28;21.90;;;;;;;;;;5042178;28;20040;-72
2023/01/28 08:52:59;;;;;;;37.28;20.15;;;;;;;;;;5046762;28;20060;-72
2023/01/28 08:55:25;;;;;;;36.33;19.40;;;;;;;;;;5044513;28;20033;-71
2023/01/28 08:57:52;;;;;;;36.38;19.77;;;;;;;;;;5045210;28;20060;-72
2023/01/28 09:00:18;;;;;;;28.92;17.00;;;;;;;;;;5044432;28;20498;-72
2023/01/28 09:02:44;;;;;;;28.98;17.30;;;;;;;;;;5042816;28;20033;-72
2023/01/28 09:05:10;;;;;;;28.20;15.27;;;;;;;;;;5041264;28;20049;-72
2023/01/28 09:07:37;;;;;;;33.13;17.00;;;;;;;;;;5042606;28;20036;-72
2023/01/28 09:10:03;;;;;;;31.90;17.60;;;;;;;;;;5045218;28;20029;-72
2023/01/28 09:12:29;;;;;;;32.53;16.90;;;;;;;;;;5043098;28;20041;-72
2023/01/28 09:14:55;;;;;;;38.47;18.65;;;;;;;;;;5042488;28;20048;-72
2023/01/28 09:17:21;;;;;;;37.60;21.60;;;;;;;;;;5046003;28;20029;-72
2023/01/28 09:19:47;;;;;;;31.10;19.08;;;;;;;;;;5044025;28;20063;-73
2023/01/28 09:22:13;;;;;;;35.53;19.65;;;;;;;;;;5029420;28;20501;-72
2023/01/28 09:24:39;;;;;;;36.25;21.20;;;;;;;;;;5044007;28;20048;-72
2023/01/28 09:27:06;;;;;;;35.60;21.38;;;;;;;;;;5046374;28;20033;-72
2023/01/28 09:29:36;;;;;;;41.95;21.33;;;;;;;;;;5045951;28;20063;-72
2023/01/28 09:32:03;;;;;;;38.58;21.48;;;;;;;;;;5047881;28;20029;-72
2023/01/28 09:34:29;;;;;;;41.40;24.00;;;;;;;;;;5043310;28;20494;-72
2023/01/28 09:36:55;;;;;;;48.13;27.13;;;;;;;;;;5046303;28;20072;-72
2023/01/28 09:39:21;;;;;;;40.70;24.80;;;;;;;;;;5043792;28;20029;-72
2023/01/28 09:41:48;;;;;;;40.85;22.85;;;;;;;;;;5042917;28;20040;-72
2023/01/28 09:44:32;;;;;;;41.05;22.67;;;;;;;;;;5047014;28;20541;-72
2023/01/28 09:47:02;;;;;;;39.78;20.63;;;;;;;;;;5046740;28;20039;-71
2023/01/28 09:49:38;;;;;;;30.02;16.92;;;;;;;;;;5045140;28;20127;-72
2023/01/28 09:52:04;;;;;;;33.88;16.88;;;;;;;;;;5044481;28;20457;-72
2023/01/28 09:54:44;;;;;;;34.20;17.25;;;;;;;;;;5042715;28;20048;-72
2023/01/28 09:57:19;;;;;;;28.42;15.63;;;;;;;;;;5042724;28;20047;-72
2023/01/28 09:59:45;;;;;;;30.20;15.52;;;;;;;;;;5045205;28;20923;-72
2023/01/28 10:02:30;;;;;;;38.67;18.55;;;;;;;;;;5045760;28;20103;-72
2023/01/28 10:04:56;;;;;;;41.72;22.40;;;;;;;;;;5044184;28;20386;-72
2023/01/28 10:07:42;;;;;;;44.42;22.55;;;;;;;;;;5044696;28;20037;-72
2023/01/28 10:10:26;;;;;;;45.92;23.85;;;;;;;;;;5025818;28;20572;-72
2023/01/28 10:12:52;;;;;;;41.22;21.98;;;;;;;;;;5044963;28;20032;-72
2023/01/28 10:15:21;;;;;;;42.42;22.10;;;;;;;;;;5045506;28;20057;-72
2023/01/28 10:17:49;;;;;;;49.70;28.45;;;;;;;;;;5045080;28;20032;-72
2023/01/28 10:20:24;;;;;;;55.90;28.75;;;;;;;;;;5042096;28;20029;-73
2023/01/28 10:22:50;;;;;;;61.42;30.98;;;;;;;;;;5045287;28;20036;-72
2023/01/28 10:25:21;;;;;;;67.47;37.17;;;;;;;;;;5045693;28;20032;-72
2023/01/28 10:27:48;;;;;;;51.45;29.63;;;;;;;;;;5042213;28;20021;-72
2023/01/28 10:30:17;;;;;;;71.75;39.17;;;;;;;;;;5038700;28;20040;-72
2023/01/28 10:32:46;;;;;;;50.92;29.63;;;;;;;;;;5041014;28;20033;-73
2023/01/28 10:35:12;;;;;;;49.20;27.95;;;;;;;;;;5042254;28;20065;-73
2023/01/28 10:37:39;;;;;;;41.38;25.48;;;;;;;;;;5040630;28;20071;-73
2023/01/28 10:40:07;;;;;;;40.50;22.95;;;;;;;;;;5043247;28;20040;-73
2023/01/28 10:42:37;;;;;;;40.55;24.50;;;;;;;;;;5043834;28;20037;-73
2023/01/28 10:45:22;;;;;;;42.55;23.73;;;;;;;;;;5044997;28;20029;-73
2023/01/28 10:47:58;;;;;;;42.58;25.13;;;;;;;;;;5041342;28;20039;-74
2023/01/28 10:50:25;;;;;;;38.90;22.17;;;;;;;;;;5043642;28;20045;-73
2023/01/28 10:52:52;;;;;;;39.38;23.55;;;;;;;;;;5044474;28;20098;-73
2023/01/28 10:55:18;;;;;;;38.50;23.65;;;;;;;;;;5047816;28;20033;-73
2023/01/28 10:57:44;;;;;;;38.47;21.25;;;;;;;;;;5043578;28;20032;-74
2023/01/28 11:00:22;;;;;;;36.85;24.08;;;;;;;;;;5042473;28;20037;-73
2023/01/28 11:02:49;;;;;;;39.63;23.55;;;;;;;;;;5039316;28;20036;-73
2023/01/28 11:05:18;;;;;;;35.10;20.45;;;;;;;;;;5041321;28;20159;-73
2023/01/28 11:07:44;;;;;;;37.10;22.35;;;;;;;;;;5047185;28;20105;-73
2023/01/28 11:10:28;;;;;;;43.58;23.15;;;;;;;;;;5043306;28;20057;-74
2023/01/28 11:12:55;;;;;;;39.30;24.45;;;;;;;;;;5041359;28;20893;-73
2023/01/28 11:15:21;;;;;;;40.50;24.90;;;;;;;;;;5041773;28;20402;-73
2023/01/28 11:17:49;;;;;;;41.40;24.67;;;;;;;;;;5041757;28;20044;-73
2023/01/28 11:20:20;;;;;;;43.78;23.05;;;;;;;;;;5041680;28;20070;-72
2023/01/28 11:22:47;;;;;;;44.47;23.27;;;;;;;;;;5042566;28;20033;-73
2023/01/28 11:25:23;;;;;;;36.78;21.85;;;;;;;;;;5045649;28;20489;-73
2023/01/28 11:27:50;;;;;;;43.00;26.77;;;;;;;;;;5045632;28;20024;-73
2023/01/28 11:30:24;;;;;;;33.03;19.92;;;;;;;;;;5040042;28;20038;-73
2023/01/28 11:32:58;;;;;;;31.63;19.80;;;;;;;;;;5045306;28;20131;-75
2023/01/28 11:35:27;;;;;;;31.63;18.30;;;;;;;;;;5044463;28;20032;-76
2023/01/28 11:37:54;;;;;;;35.10;21.77;;;;;;;;;;5046477;28;20051;-77
2023/01/28 11:40:20;;;;;;;33.72;20.75;;;;;;;;;;5047497;28;20482;-77
2023/01/28 11:42:51;;;;;;;32.95;20.38;;;;;;;;;;5045391;28;20036;-77
2023/01/28 11:45:18;;;;;;;36.15;22.85;;;;;;;;;;5045152;28;20071;-77
2023/01/28 11:47:50;;;;;;;37.20;24.02;;;;;;;;;;5046598;28;20037;-77
2023/01/28 11:50:16;;;;;;;40.45;23.80;;;;;;;;;;5046146;28;20112;-78
2023/01/28 11:53:00;;;;;;;36.38;22.02;;;;;;;;;;5047600;28;20531;-77
2023/01/28 11:55:41;;;;;;;30.20;18.15;;;;;;;;;;5039911;28;20561;-77
2023/01/28 11:58:13;;;;;;;31.65;19.13;;;;;;;;;;5045809;28;20773;-78
2023/01/28 12:00:48;;;;;;;30.88;18.55;;;;;;;;;;5050437;28;20131;-76
2023/01/28 12:03:14;;;;;;;33.88;20.67;;;;;;;;;;5048956;28;20033;-78
2023/01/28 12:05:40;;;;;;;26.70;16.02;;;;;;;;;;5048478;28;20484;-78
2023/01/28 12:08:18;;;;;;;26.92;18.23;;;;;;;;;;5050895;28;20041;-77
2023/01/28 12:10:53;;;;;;;28.65;18.88;;;;;;;;;;5047660;28;20021;-78
2023/01/28 12:13:32;;;;;;;27.58;16.25;;;;;;;;;;5052631;28;20094;-78
2023/01/28 12:16:02;;;;;;;25.58;15.27;;;;;;;;;;5047645;28;20037;-78
2023/01/28 12:18:37;;;;;;;31.25;16.85;;;;;;;;;;5051639;28;20083;-78
2023/01/28 12:21:26;;;;;;;29.63;17.05;;;;;;;;;;5053079;28;20031;-78
2023/01/28 12:24:14;;;;;;;27.33;14.98;;;;;;;;;;5005322;28;20049;-78
2023/01/28 12:26:39;;;;;;;25.33;14.38;;;;;;;;;;5050297;28;20029;-77
2023/01/28 12:29:18;;;;;;;32.08;16.52;;;;;;;;;;5046298;28;20375;-77
2023/01/28 12:32:02;;;;;;;25.70;14.80;;;;;;;;;;5051204;28;20364;-77
2023/01/28 12:34:46;;;;;;;23.60;14.80;;;;;;;;;;5049471;28;20070;-78
2023/01/28 12:37:18;;;;;;;22.88;14.32;;;;;;;;;;5050260;28;20063;-77
2023/01/28 12:40:04;;;;;;;19.50;11.90;;;;;;;;;;5049610;28;20040;-78
2023/01/28 12:42:35;;;;;;;24.02;15.10;;;;;;;;;;5050747;28;20036;-77
2023/01/28 12:45:17;;;;;;;23.80;14.48;;;;;;;;;;5048842;28;20111;-78
2023/01/28 12:47:47;;;;;;;26.92;16.88;;;;;;;;;;5049319;28;20041;-79
2023/01/28 12:50:20;;;;;;;27.10;15.73;;;;;;;;;;5049826;28;20044;-78
2023/01/28 12:52:53;;;;;;;26.60;15.48;;;;;;;;;;5049925;28;20020;-78
2023/01/28 12:55:33;;;;;;;25.27;14.65;;;;;;;;;;5044018;28;20039;-77
2023/01/28 12:57:59;;;;;;;25.50;13.80;;;;;;;;;;5051445;28;20052;-77
2023/01/28 13:00:27;;;;;;;26.15;15.52;;;;;;;;;;5049221;28;20501;-78
2023/01/28 13:03:12;;;;;;;24.60;13.40;;;;;;;;;;5046694;28;20029;-78
2023/01/28 13:05:40;;;;;;;21.10;13.35;;;;;;;;;;5046873;28;20035;-79
2023/01/28 13:08:26;;;;;;;24.70;15.25;;;;;;;;;;5046802;28;20433;-79
2023/01/28 13:10:53;;;;;;;25.08;15.60;;;;;;;;;;5049880;28;20581;-78
2023/01/28 13:13:27;;;;;;;24.48;14.77;;;;;;;;;;5050154;28;20527;-78
2023/01/28 13:15:53;;;;;;;26.05;15.40;;;;;;;;;;5045488;28;20045;-78
2023/01/28 13:18:40;;;;;;;27.50;16.35;;;;;;;;;;5042433;28;20517;-78
2023/01/28 13:21:07;;;;;;;25.17;15.95;;;;;;;;;;5034435;28;20045;-78
2023/01/28 13:23:39;;;;;;;25.65;15.10;;;;;;;;;;5049331;28;20282;-78
2023/01/28 13:26:31;;;;;;;27.15;16.45;;;;;;;;;;5043052;28;20040;-78
2023/01/28 13:29:16;;;;;;;26.25;16.13;;;;;;;;;;5016087;28;20711;-78
2023/01/28 13:31:44;;;;;;;25.27;15.57;;;;;;;;;;5047160;28;20032;-78
2023/01/28 13:34:31;;;;;;;29.27;17.83;;;;;;;;;;5047167;28;20029;-79
2023/01/28 13:36:59;;;;;;;29.70;18.23;;;;;;;;;;5044294;28;20034;-78
2023/01/28 13:39:25;;;;;;;27.30;18.10;;;;;;;;;;5041966;28;20029;-78
2023/01/28 13:41:53;;;;;;;25.20;16.50;;;;;;;;;;5047704;28;20136;-78
2023/01/28 13:44:25;;;;;;;25.45;16.23;;;;;;;;;;5045249;28;20037;-78
2023/01/28 13:46:59;;;;;;;27.05;16.90;;;;;;;;;;5040307;28;20025;-78
2023/01/28 13:49:32;;;;;;;28.55;17.45;;;;;;;;;;5048270;28;20052;-78
2023/01/28 13:51:58;;;;;;;;;;;;;;;;;;5035623;28;20029;-78
2023/01/28 13:54:24;;;;;;;28.20;18.02;;;;;;;;;;5045088;28;19924;-77
2023/01/28 13:56:59;;;;;;;31.00;18.13;;;;;;;;;;5048085;28;20036;-78
2023/01/28 13:59:34;;;;;;;26.35;16.77;;;;;;;;;;5046119;28;20041;-78
2023/01/28 14:02:23;;;;;;;27.88;16.67;;;;;;;;;;5043748;28;20127;-78
2023/01/28 14:05:07;;;;;;;27.40;17.05;;;;;;;;;;5045507;28;20052;-78
2023/01/28 14:07:44;;;;;;;28.17;17.40;;;;;;;;;;5049013;28;20051;-78
2023/01/28 14:10:30;;;;;;;23.83;14.40;;;;;;;;;;5054501;28;20082;-78
2023/01/28 14:13:08;;;;;;;23.35;13.70;;;;;;;;;;5048726;28;20026;-78
2023/01/28 14:15:39;;;;;;;24.88;14.00;;;;;;;;;;5047962;28;20414;-78
2023/01/28 14:18:10;;;;;;;24.88;15.00;;;;;;;;;;5048382;28;20033;-78
2023/01/28 14:20:39;;;;;;;23.73;14.00;;;;;;;;;;5043832;28;20776;-77
2023/01/28 14:23:06;;;;;;;23.17;14.90;;;;;;;;;;5048027;28;20029;-78
2023/01/28 14:25:32;;;;;;;26.08;14.05;;;;;;;;;;5049498;28;20044;-78
2023/01/28 14:28:00;;;;;;;24.20;14.45;;;;;;;;;;5050356;28;20032;-78
2023/01/28 14:30:34;;;;;;;24.98;14.68;;;;;;;;;;5051805;28;20033;-78
2023/01/28 14:33:01;;;;;;;24.77;15.82;;;;;;;;;;5049394;28;20462;-78
2023/01/28 14:35:34;;;;;;;25.13;15.45;;;;;;;;;;5048934;28;20043;-78
2023/01/28 14:38:06;;;;;;;28.38;17.55;;;;;;;;;;5048800;28;20431;-78
2023/01/28 14:40:33;;;;;;;25.92;16.27;;;;;;;;;;5048524;28;20036;-78
2023/01/28 14:43:00;;;;;;;30.58;17.63;;;;;;;;;;5047459;28;20191;-78
2023/01/28 14:45:29;;;;;;;28.88;18.40;;;;;;;;;;5049006;28;20033;-78
2023/01/28 14:48:01;;;;;;;26.80;16.42;;;;;;;;;;5048264;28;20049;-78
2023/01/28 14:50:45;;;;;;;29.48;18.05;;;;;;;;;;5050125;28;20033;-78
2023/01/28 14:53:11;;;;;;;30.80;18.50;;;;;;;;;;5048122;28;20382;-78
2023/01/28 14:55:37;;;;;;;27.25;17.73;;;;;;;;;;5048747;28;20060;-78
2023/01/28 14:58:05;;;;;;;31.35;18.98;;;;;;;;;;5043925;28;20073;-78